Time;durP1;ratioP1;P1;durP2;ratioP2;P2;SDS_P1;SDS_P2;PMS_P1;PMS_P2;Temp;Humidity;BMP_temperature;BMP_pressure;BME280_temperature;BME280_humidity;BME280_pressure;Samples;Min_cycle;Max_cycle;Signal;HPM_P1;HPM_P2
2023/01/11 00:00:54;;;;;;;38.67;15.10;;;;;;;;;;4978658;28;20207;-44
2023/01/11 00:03:21;;;;;;;34.70;15.23;;;;;;;;;;4978541;28;20234;-46
2023/01/11 00:05:48;;;;;;;60.97;25.67;;;;;;;;;;4978719;28;20269;-44
2023/01/11 00:08:18;;;;;;;45.53;16.47;;;;;;;;;;4978370;28;20702;-44
2023/01/11 00:10:44;;;;;;;42.87;15.33;;;;;;;;;;4978298;28;20210;-44
2023/01/11 00:13:13;;;;;;;33.67;13.83;;;;;;;;;;4978455;28;20269;-45
2023/01/11 00:15:40;;;;;;;61.23;38.00;;;;;;;;;;4978505;28;20198;-44
2023/01/11 00:18:08;;;;;;;43.00;20.10;;;;;;;;;;4978500;28;20203;-44
2023/01/11 00:20:39;;;;;;;83.50;25.83;;;;;;;;;;4978025;28;20548;-44
2023/01/11 00:23:07;;;;;;;36.50;15.00;;;;;;;;;;4978394;28;20219;-47
2023/01/11 00:25:34;;;;;;;48.60;17.50;;;;;;;;;;4978032;28;20405;-45
2023/01/11 00:28:02;;;;;;;50.17;18.70;;;;;;;;;;4978150;28;20207;-45
2023/01/11 00:30:29;;;;;;;41.07;16.33;;;;;;;;;;4977919;28;20652;-44
2023/01/11 00:32:58;;;;;;;37.40;14.70;;;;;;;;;;4977121;28;20226;-46
2023/01/11 00:35:26;;;;;;;55.70;19.87;;;;;;;;;;4977814;28;20207;-46
2023/01/11 00:37:53;;;;;;;43.67;20.20;;;;;;;;;;4977854;28;20202;-44
2023/01/11 00:40:22;;;;;;;122.13;30.20;;;;;;;;;;4977924;28;20214;-44
2023/01/11 00:48:21;;;;;;;170.67;121.10;;;;;;;;;;4977834;28;20210;-47
2023/01/11 00:50:52;;;;;;;73.83;35.23;;;;;;;;;;4977567;28;20222;-45
2023/01/11 00:53:19;;;;;;;88.03;28.03;;;;;;;;;;4976601;28;20555;-44
2023/01/11 00:55:46;;;;;;;106.10;30.87;;;;;;;;;;4977693;28;20191;-44
2023/01/11 00:58:14;;;;;;;65.40;22.13;;;;;;;;;;4977355;28;20656;-45
2023/01/11 01:00:41;;;;;;;44.53;16.97;;;;;;;;;;4977391;28;20606;-47
2023/01/11 01:03:09;;;;;;;51.93;20.30;;;;;;;;;;4977178;28;20223;-44
2023/01/11 01:05:37;;;;;;;55.57;18.57;;;;;;;;;;4977261;28;20265;-44
2023/01/11 01:08:05;;;;;;;38.90;14.73;;;;;;;;;;4977415;28;20585;-44
2023/01/11 01:10:32;;;;;;;132.73;55.27;;;;;;;;;;4977449;28;20223;-44
2023/01/11 01:15:45;;;;;;;88.23;25.03;;;;;;;;;;4977119;28;20599;-44
2023/01/11 01:18:12;;;;;;;255.83;108.90;;;;;;;;;;4977179;28;20211;-45
2023/01/11 01:20:39;;;;;;;189.53;135.07;;;;;;;;;;4977117;28;20254;-45
2023/01/11 01:23:07;;;;;;;118.17;54.30;;;;;;;;;;4976950;28;20230;-45
2023/01/11 01:25:36;;;;;;;96.73;32.00;;;;;;;;;;4976926;28;20293;-45
2023/01/11 01:28:03;;;;;;;81.33;29.30;;;;;;;;;;4976891;28;20528;-45
2023/01/11 01:30:30;;;;;;;87.87;29.90;;;;;;;;;;4976852;28;20241;-44
2023/01/11 01:32:57;;;;;;;84.50;30.93;;;;;;;;;;4976929;28;20206;-45
2023/01/11 01:35:25;;;;;;;75.17;23.83;;;;;;;;;;4976764;28;20742;-44
2023/01/11 01:37:52;;;;;;;54.00;19.43;;;;;;;;;;4976943;28;20206;-44
2023/01/11 01:40:20;;;;;;;61.97;21.67;;;;;;;;;;4976941;28;20593;-45
2023/01/11 01:42:52;;;;;;;93.27;35.67;;;;;;;;;;4976556;28;20644;-45
2023/01/11 01:45:25;;;;;;;68.50;23.40;;;;;;;;;;4976781;28;20293;-44
2023/01/11 01:47:56;;;;;;;112.23;30.73;;;;;;;;;;4976698;28;20213;-46
2023/01/11 01:50:30;;;;;;;186.33;87.80;;;;;;;;;;4976476;28;20289;-44
2023/01/11 01:53:07;;;;;;;90.47;71.60;;;;;;;;;;4976434;28;20289;-44
2023/01/11 01:55:37;;;;;;;82.50;32.77;;;;;;;;;;4975428;28;20230;-44
2023/01/11 01:58:09;;;;;;;116.20;32.43;;;;;;;;;;4975618;28;20233;-44
2023/01/11 02:00:40;;;;;;;85.53;27.60;;;;;;;;;;4976350;28;20218;-45
2023/01/11 02:03:11;;;;;;;54.37;18.03;;;;;;;;;;4975339;28;20281;-45
2023/01/11 02:05:38;;;;;;;52.73;20.60;;;;;;;;;;4975579;28;20294;-46
2023/01/11 02:08:11;;;;;;;46.53;17.27;;;;;;;;;;4975231;28;20234;-45
2023/01/11 02:10:38;;;;;;;40.10;14.07;;;;;;;;;;4975286;28;20577;-44
2023/01/11 02:13:08;;;;;;;142.73;55.03;;;;;;;;;;4976019;28;20203;-45
2023/01/11 02:15:36;;;;;;;70.80;29.80;;;;;;;;;;4975683;28;20226;-44
2023/01/11 02:18:04;;;;;;;88.93;26.23;;;;;;;;;;4976208;28;20211;-44
2023/01/11 02:20:34;;;;;;;80.80;24.17;;;;;;;;;;4975235;28;20203;-46
2023/01/11 02:23:07;;;;;;;47.67;15.67;;;;;;;;;;4976208;28;20195;-46
2023/01/11 02:26:11;;;;;;;39.73;15.23;;;;;;;;;;4975805;28;20293;-44
2023/01/11 02:29:23;;;;;;;74.60;51.47;;;;;;;;;;4976026;28;20210;-44
2023/01/11 02:32:09;;;;;;;54.70;21.67;;;;;;;;;;4954659;29;20210;-45
2023/01/11 02:34:43;;;;;;;114.53;28.83;;;;;;;;;;4954727;29;20223;-47
2023/01/11 02:37:14;;;;;;;112.43;32.37;;;;;;;;;;4954708;29;20645;-44
2023/01/11 02:39:54;;;;;;;34.43;15.07;;;;;;;;;;4954695;29;20300;-47
2023/01/11 02:46:07;;;;;;;48.00;17.17;;;;;;;;;;4941195;29;20302;-44
2023/01/11 02:48:59;;;;;;;126.57;50.20;;;;;;;;;;4954385;29;20664;-44
2023/01/11 02:51:54;;;;;;;80.37;25.43;;;;;;;;;;4954477;29;20226;-48
2023/01/11 02:54:22;;;;;;;113.07;27.87;;;;;;;;;;4949345;29;20245;-47
2023/01/11 02:56:53;;;;;;;89.57;21.17;;;;;;;;;;4938500;29;20208;-45
2023/01/11 02:59:23;;;;;;;68.00;25.90;;;;;;;;;;4954387;29;20215;-44
2023/01/11 03:01:52;;;;;;;70.83;43.07;;;;;;;;;;4938531;29;20700;-45
2023/01/11 03:04:22;;;;;;;57.90;24.17;;;;;;;;;;4954243;29;20692;-44
2023/01/11 03:06:53;;;;;;;91.03;25.73;;;;;;;;;;4974334;28;20636;-45
2023/01/11 03:09:29;;;;;;;55.23;17.03;;;;;;;;;;4974637;28;20265;-44
2023/01/11 03:15:35;;;;;;;39.83;14.73;;;;;;;;;;4975259;28;20206;-44
2023/01/11 03:18:05;;;;;;;38.33;14.90;;;;;;;;;;4975128;28;20207;-45
2023/01/11 03:20:48;;;;;;;48.03;15.10;;;;;;;;;;4975375;28;20207;-45
2023/01/11 03:23:49;;;;;;;49.43;19.53;;;;;;;;;;4974271;28;20206;-44
2023/01/11 03:26:28;;;;;;;43.37;14.70;;;;;;;;;;4958231;28;20266;-45
2023/01/11 03:29:07;;;;;;;41.50;15.10;;;;;;;;;;4978251;28;20191;-44
2023/01/11 03:31:41;;;;;;;66.00;36.00;;;;;;;;;;4979226;28;20293;-44
2023/01/11 03:34:12;;;;;;;94.13;38.73;;;;;;;;;;4978198;28;20206;-45
2023/01/11 03:36:42;;;;;;;58.10;22.00;;;;;;;;;;4978887;28;20210;-45
2023/01/11 03:39:18;;;;;;;66.70;21.43;;;;;;;;;;4979164;28;20202;-44
2023/01/11 03:41:47;;;;;;;45.10;16.43;;;;;;;;;;4979463;28;20194;-44
2023/01/11 03:44:17;;;;;;;45.87;15.60;;;;;;;;;;4977937;28;20537;-44
2023/01/11 03:46:50;;;;;;;50.37;18.13;;;;;;;;;;4977916;28;20203;-48
2023/01/11 03:49:53;;;;;;;58.37;17.73;;;;;;;;;;4978160;28;20194;-45
2023/01/11 03:52:24;;;;;;;98.30;37.90;;;;;;;;;;4977108;28;20240;-44
2023/01/11 03:54:52;;;;;;;83.60;30.47;;;;;;;;;;4977702;28;20289;-47
2023/01/11 03:57:26;;;;;;;104.27;26.77;;;;;;;;;;4977688;28;20207;-44
2023/01/11 03:59:53;;;;;;;54.10;17.40;;;;;;;;;;4977945;28;20212;-44
2023/01/11 04:02:24;;;;;;;58.70;18.07;;;;;;;;;;4978765;28;20206;-44
2023/01/11 04:04:52;;;;;;;46.60;19.60;;;;;;;;;;4977725;28;20230;-47
2023/01/11 04:07:19;;;;;;;54.60;35.03;;;;;;;;;;4978406;28;20206;-44
2023/01/11 04:09:46;;;;;;;60.00;24.13;;;;;;;;;;4978341;28;20213;-44
2023/01/11 04:12:13;;;;;;;60.37;19.47;;;;;;;;;;4978536;28;20207;-45
2023/01/11 04:14:40;;;;;;;44.73;16.33;;;;;;;;;;4978269;28;20214;-44
2023/01/11 04:17:07;;;;;;;49.47;16.50;;;;;;;;;;4978210;28;20686;-45
2023/01/11 04:19:35;;;;;;;51.50;15.97;;;;;;;;;;4978154;28;20207;-45
2023/01/11 04:22:02;;;;;;;53.40;18.50;;;;;;;;;;4978196;28;20230;-45
2023/01/11 04:24:29;;;;;;;47.87;16.03;;;;;;;;;;4978055;28;20608;-44
2023/01/11 04:26:56;;;;;;;145.47;53.80;;;;;;;;;;4978258;28;20210;-44
2023/01/11 04:29:23;;;;;;;81.83;27.80;;;;;;;;;;4977984;28;20206;-44
2023/01/11 04:31:50;;;;;;;110.47;29.87;;;;;;;;;;4976861;28;20298;-46
2023/01/11 04:34:17;;;;;;;59.40;20.77;;;;;;;;;;4977751;28;20214;-45
2023/01/11 04:36:44;;;;;;;47.03;18.03;;;;;;;;;;4977769;28;20222;-45
2023/01/11 04:39:12;;;;;;;80.17;39.60;;;;;;;;;;4976710;28;20211;-45
2023/01/11 04:44:25;;;;;;;49.80;19.57;;;;;;;;;;4977889;28;20222;-44
2023/01/11 04:46:52;;;;;;;76.00;21.73;;;;;;;;;;4976800;28;20273;-47
2023/01/11 04:49:19;;;;;;;45.30;14.90;;;;;;;;;;4976155;28;20210;-44
2023/01/11 04:51:46;;;;;;;57.13;17.47;;;;;;;;;;4977656;28;20211;-44
2023/01/11 04:54:15;;;;;;;35.47;14.00;;;;;;;;;;4977105;28;20242;-44
2023/01/11 04:56:42;;;;;;;59.97;18.67;;;;;;;;;;4977042;28;20226;-45
2023/01/11 04:59:09;;;;;;;35.40;13.60;;;;;;;;;;4971091;28;20703;-45
2023/01/11 05:01:36;;;;;;;60.10;24.17;;;;;;;;;;4967052;28;20222;-44
2023/01/11 05:04:03;;;;;;;88.00;27.67;;;;;;;;;;4968202;28;20549;-44
2023/01/11 05:06:30;;;;;;;85.47;24.80;;;;;;;;;;4958347;28;20233;-44
2023/01/11 05:08:58;;;;;;;86.00;24.30;;;;;;;;;;4976844;28;20246;-50
2023/01/11 05:11:24;;;;;;;66.30;19.43;;;;;;;;;;4960270;28;20576;-44
2023/01/11 05:13:52;;;;;;;106.70;74.30;;;;;;;;;;4968807;28;20234;-46
2023/01/11 05:16:22;;;;;;;51.43;28.80;;;;;;;;;;4967604;28;20277;-44
2023/01/11 05:18:55;;;;;;;128.00;35.30;;;;;;;;;;4976410;28;20667;-44
2023/01/11 05:21:24;;;;;;;68.83;22.23;;;;;;;;;;4975889;28;20218;-45
2023/01/11 05:23:52;;;;;;;76.37;22.77;;;;;;;;;;4976509;28;20222;-45
2023/01/11 05:26:26;;;;;;;59.13;19.47;;;;;;;;;;4976149;28;20254;-44
2023/01/11 05:29:05;;;;;;;45.43;14.27;;;;;;;;;;4975923;28;20694;-44
2023/01/11 05:31:34;;;;;;;69.17;18.30;;;;;;;;;;4976318;28;20230;-47
2023/01/11 05:34:02;;;;;;;43.17;17.67;;;;;;;;;;4976029;28;20762;-45
2023/01/11 05:36:29;;;;;;;97.83;41.00;;;;;;;;;;4976365;28;20281;-44
2023/01/11 05:38:56;;;;;;;153.67;39.17;;;;;;;;;;4976307;28;20242;-50
2023/01/11 05:41:25;;;;;;;123.07;30.70;;;;;;;;;;4975531;28;20222;-47
2023/01/11 05:46:40;;;;;;;54.17;30.77;;;;;;;;;;4975845;28;20624;-43
2023/01/11 05:49:09;;;;;;;38.43;16.90;;;;;;;;;;4966724;28;20269;-45
2023/01/11 05:51:39;;;;;;;53.50;17.90;;;;;;;;;;4956303;28;20306;-44
2023/01/11 05:54:11;;;;;;;53.37;19.47;;;;;;;;;;4956053;28;20333;-48
2023/01/11 05:56:38;;;;;;;50.17;17.43;;;;;;;;;;4954859;28;20235;-43
2023/01/11 05:59:05;;;;;;;55.37;16.93;;;;;;;;;;4954347;28;20227;-44
2023/01/11 06:01:33;;;;;;;64.10;22.40;;;;;;;;;;4954690;28;20334;-45
2023/01/11 06:04:00;;;;;;;45.07;15.90;;;;;;;;;;4953703;29;20231;-44
2023/01/11 06:06:27;;;;;;;125.97;50.43;;;;;;;;;;4954428;28;20231;-47
2023/01/11 06:08:55;;;;;;;73.37;25.37;;;;;;;;;;4955449;28;20227;-46
2023/01/11 06:11:22;;;;;;;74.13;23.13;;;;;;;;;;4974432;28;20682;-44
2023/01/11 06:13:49;;;;;;;66.93;20.57;;;;;;;;;;4974840;28;20249;-48
2023/01/11 06:16:18;;;;;;;100.53;65.30;;;;;;;;;;4955622;28;20242;-47
2023/01/11 06:18:47;;;;;;;83.87;36.73;;;;;;;;;;4955893;28;20298;-44
2023/01/11 06:21:15;;;;;;;51.53;23.43;;;;;;;;;;4955481;28;20227;-45
2023/01/11 06:23:46;;;;;;;73.40;23.63;;;;;;;;;;4955831;28;20223;-45
2023/01/11 06:26:15;;;;;;;54.77;18.77;;;;;;;;;;4955772;28;20611;-48
2023/01/11 06:28:43;;;;;;;47.30;18.87;;;;;;;;;;4955298;28;20286;-44
2023/01/11 06:31:10;;;;;;;46.67;16.13;;;;;;;;;;4955178;28;20749;-51
2023/01/11 06:33:38;;;;;;;38.50;15.13;;;;;;;;;;4955382;28;20238;-44
2023/01/11 06:36:09;;;;;;;37.07;14.53;;;;;;;;;;4955500;28;20239;-44
2023/01/11 06:38:37;;;;;;;63.07;29.83;;;;;;;;;;4955651;28;20239;-46
2023/01/11 06:41:07;;;;;;;67.07;22.50;;;;;;;;;;4955081;28;20227;-44
2023/01/11 06:43:36;;;;;;;60.00;20.03;;;;;;;;;;4955204;28;20685;-45
2023/01/11 06:46:03;;;;;;;86.73;24.90;;;;;;;;;;4954592;28;20235;-44
2023/01/11 06:48:31;;;;;;;68.97;42.37;;;;;;;;;;4954375;28;20227;-48
2023/01/11 06:50:58;;;;;;;66.53;35.07;;;;;;;;;;4955418;28;20242;-47
2023/01/11 06:53:26;;;;;;;104.80;29.23;;;;;;;;;;4955135;28;20226;-45
2023/01/11 06:55:56;;;;;;;131.77;33.23;;;;;;;;;;4971969;28;20219;-47
2023/01/11 06:58:24;;;;;;;79.87;23.63;;;;;;;;;;4965058;28;20231;-44
2023/01/11 07:00:53;;;;;;;59.67;19.33;;;;;;;;;;4953676;28;20752;-46
2023/01/11 07:03:22;;;;;;;70.70;21.30;;;;;;;;;;4954820;28;20625;-43
2023/01/11 07:05:51;;;;;;;60.17;20.27;;;;;;;;;;4954999;28;20247;-43
2023/01/11 07:08:19;;;;;;;47.37;16.13;;;;;;;;;;4953705;28;20224;-44
2023/01/11 07:10:46;;;;;;;113.50;46.67;;;;;;;;;;4955333;28;20228;-44
2023/01/11 07:13:17;;;;;;;104.53;29.83;;;;;;;;;;4953354;28;20662;-44
2023/01/11 07:15:49;;;;;;;173.53;38.53;;;;;;;;;;4953910;29;20234;-44
2023/01/11 07:18:17;;;;;;;96.47;25.23;;;;;;;;;;4956771;28;20584;-52
2023/01/11 07:20:45;;;;;;;114.53;61.10;;;;;;;;;;4954896;29;20220;-43
2023/01/11 07:23:12;;;;;;;113.23;83.90;;;;;;;;;;4969419;28;20571;-48
2023/01/11 07:25:40;;;;;;;62.80;25.87;;;;;;;;;;4973008;28;20297;-43
2023/01/11 07:28:08;;;;;;;56.60;21.10;;;;;;;;;;4967728;28;20231;-44
2023/01/11 07:30:37;;;;;;;78.80;26.03;;;;;;;;;;4965346;28;20257;-44
2023/01/11 07:33:22;;;;;;;51.07;17.73;;;;;;;;;;4954856;28;20565;-44
2023/01/11 07:35:49;;;;;;;52.00;17.43;;;;;;;;;;4972909;28;20223;-45
2023/01/11 07:38:17;;;;;;;46.77;16.13;;;;;;;;;;4973820;28;20695;-43
2023/01/11 07:40:44;;;;;;;41.27;16.20;;;;;;;;;;4974144;28;20325;-44
2023/01/11 07:43:18;;;;;;;75.87;22.83;;;;;;;;;;4974380;28;20234;-46
2023/01/11 07:45:48;;;;;;;76.23;29.07;;;;;;;;;;4973765;28;20292;-44
2023/01/11 07:48:24;;;;;;;118.23;29.20;;;;;;;;;;4972974;28;20273;-44
2023/01/11 07:50:54;;;;;;;100.90;25.00;;;;;;;;;;4973455;28;20835;-44
2023/01/11 07:53:24;;;;;;;76.93;22.13;;;;;;;;;;4973602;28;20674;-47
2023/01/11 07:55:54;;;;;;;74.20;48.50;;;;;;;;;;4973977;28;20675;-46
2023/01/11 07:58:21;;;;;;;87.57;40.70;;;;;;;;;;4973626;28;20253;-49
2023/01/11 08:00:48;;;;;;;88.67;27.73;;;;;;;;;;4972851;28;20233;-45
2023/01/11 08:03:15;;;;;;;77.23;24.13;;;;;;;;;;4972933;28;20290;-44
2023/01/11 08:05:42;;;;;;;65.43;22.03;;;;;;;;;;4973298;28;21210;-45
2023/01/11 08:08:10;;;;;;;64.13;20.87;;;;;;;;;;4974185;28;20277;-46
2023/01/11 08:10:37;;;;;;;55.67;19.47;;;;;;;;;;4973205;28;20254;-48
2023/01/11 08:15:57;;;;;;;49.60;18.23;;;;;;;;;;4976796;28;20686;-45
2023/01/11 08:18:25;;;;;;;77.47;32.80;;;;;;;;;;4976197;28;20278;-44
2023/01/11 08:20:52;;;;;;;131.53;34.87;;;;;;;;;;4976473;28;20254;-44
2023/01/11 08:23:19;;;;;;;100.70;30.73;;;;;;;;;;4977268;28;20304;-48
2023/01/11 08:25:46;;;;;;;85.10;27.83;;;;;;;;;;4976408;28;20925;-43
2023/01/11 08:28:13;;;;;;;130.27;67.17;;;;;;;;;;4977064;28;20227;-43
2023/01/11 08:30:41;;;;;;;64.23;38.63;;;;;;;;;;4976732;28;20626;-43
2023/01/11 08:33:08;;;;;;;75.93;30.83;;;;;;;;;;4976902;28;20234;-43
2023/01/11 08:35:37;;;;;;;81.03;24.63;;;;;;;;;;4958474;28;20243;-46
2023/01/11 08:38:05;;;;;;;71.17;22.63;;;;;;;;;;4957185;28;20261;-43
2023/01/11 08:40:32;;;;;;;57.33;19.90;;;;;;;;;;4957176;28;20282;-44
2023/01/11 08:42:59;;;;;;;58.00;21.13;;;;;;;;;;4957818;28;20684;-43
2023/01/11 08:45:26;;;;;;;55.63;20.17;;;;;;;;;;4957734;28;20250;-46
2023/01/11 08:47:54;;;;;;;55.03;19.67;;;;;;;;;;4957445;28;20228;-43
2023/01/11 08:50:21;;;;;;;119.13;49.83;;;;;;;;;;4957215;28;20223;-47
2023/01/11 08:52:49;;;;;;;68.60;28.07;;;;;;;;;;4955931;28;20228;-45
2023/01/11 08:55:18;;;;;;;93.17;26.67;;;;;;;;;;4956361;28;20267;-44
2023/01/11 08:57:45;;;;;;;62.63;22.00;;;;;;;;;;4956133;28;20223;-46
2023/01/11 09:00:13;;;;;;;70.97;25.97;;;;;;;;;;4957484;28;20227;-46
2023/01/11 09:02:40;;;;;;;57.83;21.83;;;;;;;;;;4955422;28;20242;-44
2023/01/11 09:05:08;;;;;;;45.60;19.00;;;;;;;;;;4957302;28;20617;-44
2023/01/11 09:07:35;;;;;;;327.83;181.47;;;;;;;;;;4956950;28;20239;-43
2023/01/11 09:10:03;;;;;;;88.00;57.80;;;;;;;;;;4957828;28;20569;-45
2023/01/11 09:12:31;;;;;;;70.67;32.97;;;;;;;;;;4976005;28;20223;-43
2023/01/11 09:14:58;;;;;;;71.63;27.23;;;;;;;;;;4976531;28;20234;-43
2023/01/11 09:17:26;;;;;;;84.27;29.27;;;;;;;;;;4976126;28;20231;-46
2023/01/11 09:19:53;;;;;;;71.13;24.93;;;;;;;;;;4975691;28;20687;-44
2023/01/11 09:22:20;;;;;;;68.80;24.77;;;;;;;;;;4974906;28;20571;-45
2023/01/11 09:24:47;;;;;;;96.17;33.17;;;;;;;;;;4975360;28;20227;-44
2023/01/11 09:27:15;;;;;;;53.27;21.73;;;;;;;;;;4976106;28;20222;-43
2023/01/11 09:29:42;;;;;;;46.50;19.67;;;;;;;;;;4975757;28;20237;-45
2023/01/11 09:32:10;;;;;;;110.10;45.23;;;;;;;;;;4975829;28;20242;-44
2023/01/11 09:34:38;;;;;;;98.90;28.03;;;;;;;;;;4974234;28;20234;-44
2023/01/11 09:37:05;;;;;;;125.23;45.30;;;;;;;;;;4975998;28;20237;-43
2023/01/11 09:39:33;;;;;;;63.30;23.07;;;;;;;;;;4975492;28;20230;-44
2023/01/11 09:42:07;;;;;;;60.83;23.23;;;;;;;;;;4975396;28;20242;-49
2023/01/11 09:44:35;;;;;;;52.63;21.90;;;;;;;;;;4975251;28;20616;-45
2023/01/11 09:47:37;;;;;;;162.33;68.70;;;;;;;;;;4973773;28;20289;-48
2023/01/11 09:50:11;;;;;;;256.50;146.97;;;;;;;;;;4975239;28;20231;-44
2023/01/11 09:52:42;;;;;;;86.40;36.80;;;;;;;;;;4974125;28;20221;-45
2023/01/11 09:55:14;;;;;;;108.10;35.23;;;;;;;;;;4974791;28;20687;-43
2023/01/11 09:57:57;;;;;;;76.97;30.37;;;;;;;;;;4975755;28;20234;-45
2023/01/11 10:00:35;;;;;;;44.20;19.97;;;;;;;;;;4974319;28;20219;-48
2023/01/11 10:03:12;;;;;;;39.63;18.40;;;;;;;;;;4974222;28;20230;-43
2023/01/11 10:05:50;;;;;;;38.90;18.17;;;;;;;;;;4973743;28;20337;-45
2023/01/11 10:08:57;;;;;;;56.43;25.73;;;;;;;;;;4974427;28;20242;-44
2023/01/11 10:12:07;;;;;;;152.93;53.40;;;;;;;;;;4974590;28;20213;-45
2023/01/11 10:15:07;;;;;;;114.27;32.27;;;;;;;;;;4969311;28;20226;-43
2023/01/11 10:18:13;;;;;;;103.00;32.07;;;;;;;;;;4975315;28;20230;-44
2023/01/11 10:21:10;;;;;;;85.60;29.20;;;;;;;;;;4975191;28;20231;-45
2023/01/11 10:23:49;;;;;;;73.27;27.70;;;;;;;;;;4959302;28;20624;-44
2023/01/11 10:26:34;;;;;;;88.20;30.10;;;;;;;;;;4966809;28;20243;-47
2023/01/11 10:29:28;;;;;;;71.30;28.83;;;;;;;;;;4973795;28;20244;-46
2023/01/11 10:38:09;;;;;;;107.43;38.40;;;;;;;;;;4973229;28;20344;-52
2023/01/11 10:41:02;;;;;;;80.07;31.10;;;;;;;;;;4973229;28;20233;-44
2023/01/11 10:43:34;;;;;;;56.27;23.43;;;;;;;;;;4973619;28;20222;-43
2023/01/11 10:46:08;;;;;;;53.10;23.17;;;;;;;;;;4973062;28;20617;-48
2023/01/11 10:48:38;;;;;;;54.20;22.00;;;;;;;;;;4973922;28;20230;-43
2023/01/11 10:51:23;;;;;;;47.97;20.37;;;;;;;;;;4973799;28;20235;-47
2023/01/11 10:54:12;;;;;;;102.50;43.50;;;;;;;;;;4973806;28;20234;-43
2023/01/11 10:57:10;;;;;;;65.43;26.40;;;;;;;;;;4973483;28;20233;-45
2023/01/11 10:59:51;;;;;;;100.40;30.40;;;;;;;;;;4972589;28;20234;-45
2023/01/11 11:02:33;;;;;;;73.17;26.60;;;;;;;;;;4972187;28;20222;-49
2023/01/11 11:05:06;;;;;;;56.43;22.80;;;;;;;;;;4974767;28;20292;-44
2023/01/11 11:07:42;;;;;;;57.47;24.00;;;;;;;;;;4972818;28;20341;-44
2023/01/11 11:10:20;;;;;;;52.53;21.60;;;;;;;;;;4973302;28;20234;-44
2023/01/11 11:12:55;;;;;;;120.23;50.53;;;;;;;;;;4972444;28;20668;-44
2023/01/11 11:15:30;;;;;;;399.67;244.83;;;;;;;;;;4974170;28;20277;-44
2023/01/11 11:17:57;;;;;;;98.73;47.23;;;;;;;;;;4974521;28;20239;-45
2023/01/11 11:20:29;;;;;;;86.00;31.37;;;;;;;;;;4974359;28;20675;-45
2023/01/11 11:22:56;;;;;;;99.87;34.23;;;;;;;;;;4974310;28;20223;-43
2023/01/11 11:25:31;;;;;;;78.40;30.23;;;;;;;;;;4973532;28;20223;-44
2023/01/11 11:28:18;;;;;;;63.93;25.90;;;;;;;;;;4973830;28;20257;-43
2023/01/11 11:30:46;;;;;;;47.60;20.63;;;;;;;;;;4969649;28;20229;-44
2023/01/11 11:33:21;;;;;;;43.47;21.47;;;;;;;;;;4973041;28;20645;-43
2023/01/11 11:36:00;;;;;;;75.43;37.13;;;;;;;;;;4973920;28;20565;-43
2023/01/11 11:38:29;;;;;;;73.00;27.63;;;;;;;;;;4972578;28;20258;-44
2023/01/11 11:41:06;;;;;;;66.77;23.43;;;;;;;;;;4973618;28;20541;-45
2023/01/11 11:43:38;;;;;;;57.07;22.90;;;;;;;;;;4973426;28;20253;-44
2023/01/11 11:46:14;;;;;;;54.20;23.07;;;;;;;;;;4972939;28;20321;-44
2023/01/11 11:49:10;;;;;;;54.70;23.43;;;;;;;;;;4977600;28;20551;-42
2023/01/11 11:51:38;;;;;;;48.60;20.93;;;;;;;;;;4977642;28;20234;-45
2023/01/11 11:54:06;;;;;;;49.83;20.47;;;;;;;;;;4976651;28;20243;-44
2023/01/11 11:56:34;;;;;;;187.47;67.13;;;;;;;;;;4977174;28;20293;-43
2023/01/11 11:59:08;;;;;;;223.73;117.70;;;;;;;;;;4977617;28;20238;-47
2023/01/11 12:01:38;;;;;;;61.17;28.13;;;;;;;;;;4976022;28;20687;-48
2023/01/11 12:04:11;;;;;;;54.60;24.90;;;;;;;;;;4975297;28;20706;-46
2023/01/11 12:06:39;;;;;;;63.47;26.00;;;;;;;;;;4975942;28;20293;-47
2023/01/11 12:09:33;;;;;;;67.07;25.83;;;;;;;;;;4976398;28;20226;-45
2023/01/11 12:12:00;;;;;;;52.07;23.43;;;;;;;;;;4976267;28;20246;-43
2023/01/11 12:14:29;;;;;;;56.83;24.73;;;;;;;;;;4976380;28;20253;-45
2023/01/11 12:16:58;;;;;;;50.17;21.93;;;;;;;;;;4977279;28;20238;-45
2023/01/11 12:19:35;;;;;;;256.67;100.70;;;;;;;;;;4977360;28;20227;-44
2023/01/11 12:22:23;;;;;;;70.63;29.53;;;;;;;;;;4977989;28;20564;-44
2023/01/11 12:25:20;;;;;;;87.17;28.60;;;;;;;;;;4976575;28;20313;-45
2023/01/11 12:28:12;;;;;;;73.47;26.40;;;;;;;;;;4976108;28;20257;-45
2023/01/11 12:30:59;;;;;;;64.50;26.00;;;;;;;;;;4977499;28;20306;-44
2023/01/11 12:33:48;;;;;;;58.23;24.43;;;;;;;;;;4977185;28;20231;-47
2023/01/11 12:36:30;;;;;;;63.70;25.90;;;;;;;;;;4976685;28;20227;-44
2023/01/11 12:39:15;;;;;;;221.13;77.33;;;;;;;;;;4976239;28;20227;-45
2023/01/11 12:42:09;;;;;;;177.87;93.17;;;;;;;;;;4976226;28;20214;-45
2023/01/11 12:44:52;;;;;;;70.00;32.67;;;;;;;;;;4975406;28;20625;-47
2023/01/11 12:47:52;;;;;;;72.77;28.00;;;;;;;;;;4974777;28;20246;-49
2023/01/11 12:50:31;;;;;;;90.47;30.43;;;;;;;;;;4955501;29;20227;-44
2023/01/11 12:53:01;;;;;;;60.50;26.13;;;;;;;;;;4954336;29;20227;-44
2023/01/11 12:55:47;;;;;;;74.93;28.33;;;;;;;;;;4954964;28;20239;-44
2023/01/11 12:58:54;;;;;;;59.93;26.87;;;;;;;;;;4937681;28;20220;-42
2023/01/11 13:01:52;;;;;;;58.53;25.57;;;;;;;;;;4955029;29;20247;-45
2023/01/11 13:04:29;;;;;;;92.33;35.87;;;;;;;;;;4952981;29;20219;-48
2023/01/11 13:07:15;;;;;;;82.73;29.87;;;;;;;;;;4938028;29;20242;-47
2023/01/11 13:09:57;;;;;;;79.80;29.13;;;;;;;;;;4953199;29;20223;-46
2023/01/11 13:12:33;;;;;;;68.37;26.50;;;;;;;;;;4954579;29;20227;-44
2023/01/11 13:15:19;;;;;;;71.80;29.23;;;;;;;;;;4955269;29;20293;-43
2023/01/11 13:18:17;;;;;;;49.97;23.20;;;;;;;;;;4961309;28;20230;-43
2023/01/11 13:21:01;;;;;;;171.20;67.97;;;;;;;;;;4973613;28;20314;-45
2023/01/11 13:23:53;;;;;;;183.33;102.87;;;;;;;;;;4958322;28;20242;-44
2023/01/11 13:26:20;;;;;;;75.93;30.57;;;;;;;;;;4974429;28;20266;-47
2023/01/11 13:28:52;;;;;;;77.60;29.87;;;;;;;;;;4976218;28;20218;-44
2023/01/11 13:31:19;;;;;;;69.67;29.57;;;;;;;;;;4987795;28;20274;-44
2023/01/11 13:33:52;;;;;;;64.83;27.40;;;;;;;;;;4956142;29;20224;-49
2023/01/11 13:36:31;;;;;;;62.00;28.40;;;;;;;;;;4956942;28;20610;-44
2023/01/11 13:39:31;;;;;;;67.80;28.33;;;;;;;;;;4954862;29;20235;-44
2023/01/11 13:42:02;;;;;;;63.80;27.73;;;;;;;;;;4935428;29;20768;-51
2023/01/11 13:44:33;;;;;;;111.43;44.07;;;;;;;;;;4920101;29;20224;-43
2023/01/11 13:47:08;;;;;;;65.20;29.30;;;;;;;;;;4920343;29;20240;-44
2023/01/11 13:50:07;;;;;;;91.40;34.17;;;;;;;;;;4935476;29;20252;-45
2023/01/11 13:52:47;;;;;;;71.20;31.40;;;;;;;;;;4937086;29;20846;-46
2023/01/11 13:55:38;;;;;;;73.13;30.80;;;;;;;;;;4954197;29;20239;-46
2023/01/11 13:58:14;;;;;;;62.57;28.20;;;;;;;;;;4953731;29;20227;-44
2023/01/11 14:00:46;;;;;;;67.83;29.57;;;;;;;;;;4953504;29;20231;-48
2023/01/11 14:03:38;;;;;;;173.43;71.30;;;;;;;;;;4953762;29;20235;-43
2023/01/11 14:06:30;;;;;;;344.67;177.27;;;;;;;;;;4953299;29;20231;-42
2023/01/11 14:09:09;;;;;;;75.20;34.97;;;;;;;;;;4954379;29;20294;-44
2023/01/11 14:12:04;;;;;;;61.63;28.00;;;;;;;;;;4953086;28;20250;-49
2023/01/11 14:14:53;;;;;;;59.20;26.30;;;;;;;;;;4952450;29;20310;-44
2023/01/11 14:17:35;;;;;;;95.27;32.90;;;;;;;;;;4953595;28;20230;-43
2023/01/11 14:20:14;;;;;;;65.73;26.47;;;;;;;;;;4974483;28;20710;-43
2023/01/11 14:23:04;;;;;;;64.53;27.63;;;;;;;;;;4957818;28;20215;-49
2023/01/11 14:25:46;;;;;;;104.13;39.63;;;;;;;;;;4955106;28;20242;-46
2023/01/11 14:28:23;;;;;;;151.27;50.67;;;;;;;;;;4955441;28;20235;-44
2023/01/11 14:31:08;;;;;;;86.27;31.57;;;;;;;;;;4967682;28;20230;-44
2023/01/11 14:34:02;;;;;;;74.70;28.90;;;;;;;;;;4975056;28;20238;-42
2023/01/11 14:36:50;;;;;;;62.03;26.13;;;;;;;;;;4973523;28;20250;-42
2023/01/11 14:39:29;;;;;;;60.73;26.10;;;;;;;;;;4975095;28;20238;-44
2023/01/11 14:42:27;;;;;;;54.33;24.83;;;;;;;;;;4974853;28;20292;-47
2023/01/11 14:45:19;;;;;;;55.70;24.03;;;;;;;;;;4974799;28;20512;-43
2023/01/11 14:47:58;;;;;;;488.33;260.43;;;;;;;;;;4973022;28;20238;-45
2023/01/11 14:50:34;;;;;;;156.83;78.30;;;;;;;;;;4971720;28;20226;-45
2023/01/11 14:53:02;;;;;;;64.63;32.00;;;;;;;;;;4972322;28;20226;-53
2023/01/11 14:55:35;;;;;;;94.90;35.47;;;;;;;;;;4955186;28;20676;-46
2023/01/11 14:58:15;;;;;;;59.13;27.57;;;;;;;;;;4969926;28;20250;-46
2023/01/11 15:00:42;;;;;;;65.30;28.20;;;;;;;;;;4960197;28;20251;-51
2023/01/11 15:03:09;;;;;;;54.87;26.70;;;;;;;;;;4961378;28;20233;-46
2023/01/11 15:05:44;;;;;;;54.27;25.80;;;;;;;;;;4973347;28;20238;-44
2023/01/11 15:08:13;;;;;;;62.77;29.10;;;;;;;;;;4974055;28;20234;-51
2023/01/11 15:10:49;;;;;;;120.77;47.30;;;;;;;;;;4955508;28;20294;-45
2023/01/11 15:13:23;;;;;;;138.03;41.07;;;;;;;;;;4954012;28;20679;-49
2023/01/11 15:18:46;;;;;;;71.40;29.50;;;;;;;;;;4970951;28;20227;-46
2023/01/11 15:21:20;;;;;;;61.83;28.37;;;;;;;;;;4954565;28;20250;-45
2023/01/11 15:23:56;;;;;;;55.40;26.40;;;;;;;;;;4954934;28;20222;-48